Time;durP1;ratioP1;P1;durP2;ratioP2;P2;SDS_P1;SDS_P2;PMS_P1;PMS_P2;Temp;Humidity;BMP_temperature;BMP_pressure;BME280_temperature;BME280_humidity;BME280_pressure;Samples;Min_cycle;Max_cycle;Signal;HPM_P1;HPM_P2
2023/08/12 00:01:13;;;;;;;1.80;1.70;;;21.70;75.20;;;;;;5098302;28;20252;-70
2023/08/12 00:03:38;;;;;;;1.92;1.83;;;21.70;75.20;;;;;;5083944;28;20184;-70
2023/08/12 00:06:05;;;;;;;1.95;1.85;;;21.70;75.20;;;;;;5104445;28;20199;-70
2023/08/12 00:08:31;;;;;;;2.17;1.98;;;21.70;75.10;;;;;;5078576;28;20213;-70
2023/08/12 00:10:57;;;;;;;1.67;1.58;;;21.70;75.10;;;;;;5100036;28;20185;-69
2023/08/12 00:13:23;;;;;;;1.90;1.80;;;21.70;75.10;;;;;;5074883;28;20209;-69
2023/08/12 00:15:48;;;;;;;1.63;1.52;;;21.70;75.10;;;;;;5103734;28;20628;-69
2023/08/12 00:18:15;;;;;;;1.98;1.88;;;21.70;75.20;;;;;;5105397;28;20196;-70
2023/08/12 00:20:42;;;;;;;1.80;1.70;;;21.70;75.20;;;;;;5079446;28;20260;-70
2023/08/12 00:23:08;;;;;;;1.85;1.75;;;21.70;75.20;;;;;;5087342;28;20219;-69
2023/08/12 00:25:34;;;;;;;1.65;1.55;;;21.70;75.20;;;;;;5075871;28;20211;-70
2023/08/12 00:28:00;;;;;;;2.10;2.00;;;21.70;75.30;;;;;;5083764;28;20201;-67
2023/08/12 00:30:26;;;;;;;2.00;1.90;;;21.70;75.30;;;;;;5101061;28;20181;-70
2023/08/12 00:32:52;;;;;;;1.95;1.85;;;21.70;75.30;;;;;;5086986;28;20200;-69
2023/08/12 00:35:18;;;;;;;1.70;1.60;;;21.70;75.30;;;;;;5103868;28;20177;-69
2023/08/12 00:37:45;;;;;;;2.10;2.00;;;21.70;75.30;;;;;;5068329;28;20187;-69
2023/08/12 00:40:12;;;;;;;2.03;1.92;;;21.70;75.30;;;;;;5083354;28;20188;-70
2023/08/12 00:42:38;;;;;;;1.70;1.60;;;21.70;75.20;;;;;;5084471;28;20605;-69
2023/08/12 00:45:10;;;;;;;1.98;1.88;;;21.70;75.20;;;;;;5069953;28;20241;-69
2023/08/12 00:47:36;;;;;;;2.00;1.90;;;21.70;75.20;;;;;;5086189;28;20251;-69
2023/08/12 00:50:02;;;;;;;1.80;1.70;;;21.70;75.30;;;;;;5096491;28;20225;-69
2023/08/12 00:52:28;;;;;;;1.73;1.63;;;21.70;75.20;;;;;;5103822;28;20192;-69
2023/08/12 00:54:54;;;;;;;2.10;2.00;;;21.70;75.20;;;;;;5066845;28;20230;-69
2023/08/12 00:57:20;;;;;;;1.95;1.85;;;21.70;75.30;;;;;;5095221;28;20207;-68
2023/08/12 00:59:49;;;;;;;1.70;1.60;;;21.70;75.20;;;;;;5067766;28;20292;-70
2023/08/12 01:02:15;;;;;;;2.25;1.95;;;21.70;75.20;;;;;;5080746;28;20247;-69
2023/08/12 01:04:41;;;;;;;1.95;1.85;;;21.70;75.20;;;;;;5085356;28;20276;-69
2023/08/12 01:07:07;;;;;;;1.70;1.60;;;21.70;75.20;;;;;;5078381;28;20173;-70
2023/08/12 01:09:33;;;;;;;1.83;1.73;;;21.70;75.20;;;;;;5074559;28;20295;-69
2023/08/12 01:12:26;;;;;;;1.70;1.60;;;21.70;75.20;;;;;;5062686;28;20264;-69
2023/08/12 01:15:08;;;;;;;1.80;1.70;;;21.60;75.20;;;;;;5083936;28;20205;-70
2023/08/12 01:17:37;;;;;;;2.08;1.98;;;21.60;75.30;;;;;;5069145;28;20272;-72
2023/08/12 01:20:08;;;;;;;1.90;1.80;;;21.60;75.20;;;;;;5074774;28;20266;-69
2023/08/12 01:22:39;;;;;;;1.83;1.73;;;21.60;75.20;;;;;;5094738;28;20202;-69
2023/08/12 01:25:06;;;;;;;1.90;1.80;;;21.60;75.20;;;;;;5057770;28;20189;-69
2023/08/12 01:27:33;;;;;;;2.00;1.90;;;21.60;75.10;;;;;;5066052;28;20274;-69
2023/08/12 01:29:59;;;;;;;2.20;1.80;;;21.60;75.10;;;;;;5086132;28;20176;-69
2023/08/12 01:32:34;;;;;;;1.73;1.63;;;21.60;75.10;;;;;;5079313;28;20276;-69
2023/08/12 01:35:50;;;;;;;1.80;1.70;;;21.60;75.10;;;;;;5086110;28;20186;-69
2023/08/12 01:38:19;;;;;;;2.00;1.90;;;21.60;75.10;;;;;;5059493;28;20197;-69
2023/08/12 01:40:47;;;;;;;2.08;1.98;;;21.60;75.30;;;;;;5067093;28;20283;-69
2023/08/12 01:43:13;;;;;;;2.00;1.90;;;21.60;75.20;;;;;;5080694;28;20202;-70
2023/08/12 01:45:41;;;;;;;1.88;1.77;;;21.60;75.20;;;;;;5082568;28;20173;-71
2023/08/12 01:48:07;;;;;;;1.60;1.50;;;21.60;75.20;;;;;;5057203;28;20209;-69
2023/08/12 01:50:33;;;;;;;1.95;1.85;;;21.60;75.20;;;;;;5073873;28;20196;-69
2023/08/12 01:52:58;;;;;;;2.13;2.00;;;21.60;75.20;;;;;;5090946;28;20209;-69
2023/08/12 01:55:25;;;;;;;1.65;1.55;;;21.60;75.20;;;;;;5048892;28;20315;-69
2023/08/12 01:57:51;;;;;;;1.92;1.83;;;21.60;75.20;;;;;;5065486;28;20203;-69
2023/08/12 02:00:17;;;;;;;1.95;1.80;;;21.60;75.10;;;;;;5071921;28;20226;-69
2023/08/12 02:02:46;;;;;;;1.90;1.80;;;21.60;75.20;;;;;;5083356;28;20181;-69
2023/08/12 02:05:13;;;;;;;2.05;1.95;;;21.60;75.10;;;;;;5085805;28;20326;-69
2023/08/12 02:07:38;;;;;;;1.92;1.83;;;21.60;75.20;;;;;;5076896;28;20268;-71
2023/08/12 02:10:05;;;;;;;1.90;1.80;;;21.60;75.20;;;;;;5094079;28;20260;-69
2023/08/12 02:12:31;;;;;;;1.83;1.73;;;21.60;75.10;;;;;;5068826;28;20187;-70
2023/08/12 02:14:57;;;;;;;2.20;2.10;;;21.60;75.20;;;;;;5085784;28;20180;-70
2023/08/12 02:17:23;;;;;;;1.80;1.70;;;21.60;75.20;;;;;;5062707;28;20230;-69
2023/08/12 02:19:51;;;;;;;1.70;1.60;;;21.60;75.20;;;;;;5074104;28;20258;-70
2023/08/12 02:22:17;;;;;;;1.90;1.80;;;21.60;75.20;;;;;;5076996;28;20172;-69
2023/08/12 02:24:43;;;;;;;1.88;1.77;;;21.60;75.20;;;;;;5085035;28;20182;-70
2023/08/12 02:27:08;;;;;;;1.83;1.73;;;21.60;75.30;;;;;;5077835;28;20192;-70
2023/08/12 02:29:34;;;;;;;1.90;1.80;;;21.60;75.20;;;;;;5062839;28;20224;-69
2023/08/12 02:32:00;;;;;;;2.05;1.90;;;21.60;75.20;;;;;;5064881;28;20201;-69
2023/08/12 02:34:25;;;;;;;2.00;1.90;;;21.60;75.20;;;;;;5070219;28;20221;-70
2023/08/12 02:36:51;;;;;;;2.00;1.90;;;21.50;75.10;;;;;;5063277;28;20207;-69
2023/08/12 02:39:17;;;;;;;1.77;1.67;;;21.60;75.20;;;;;;5073304;28;20261;-69
2023/08/12 02:41:43;;;;;;;1.98;1.88;;;21.60;75.20;;;;;;5069628;28;20192;-69
2023/08/12 02:44:08;;;;;;;2.00;1.90;;;21.50;75.00;;;;;;5073745;28;20216;-69
2023/08/12 02:46:34;;;;;;;1.73;1.63;;;21.60;75.20;;;;;;5063927;28;20180;-69
2023/08/12 02:49:00;;;;;;;1.80;1.70;;;21.50;75.10;;;;;;5082433;28;20220;-70
2023/08/12 02:51:26;;;;;;;2.22;1.70;;;21.60;75.20;;;;;;5081780;28;20185;-70
2023/08/12 02:53:51;;;;;;;1.70;1.60;;;21.60;75.20;;;;;;5081929;28;20208;-69
2023/08/12 02:56:17;;;;;;;2.00;1.90;;;21.60;75.30;;;;;;5073223;28;20177;-70
2023/08/12 02:58:43;;;;;;;1.90;1.80;;;21.60;75.30;;;;;;5065045;28;20205;-69
2023/08/12 03:01:08;;;;;;;1.88;1.77;;;21.60;75.20;;;;;;5081396;28;20181;-70
2023/08/12 03:03:34;;;;;;;1.98;1.88;;;21.50;75.10;;;;;;5068401;28;20303;-70
2023/08/12 03:06:00;;;;;;;1.75;1.65;;;21.60;75.20;;;;;;5081617;28;20238;-69
2023/08/12 03:08:27;;;;;;;2.00;1.90;;;21.60;75.20;;;;;;5087772;28;20209;-69
2023/08/12 03:11:03;;;;;;;1.90;1.80;;;21.60;75.30;;;;;;5085434;28;20199;-69
2023/08/12 03:13:30;;;;;;;1.70;1.60;;;21.50;75.10;;;;;;5085631;28;20709;-70
2023/08/12 03:15:57;;;;;;;1.85;1.75;;;21.50;75.10;;;;;;5061979;28;20216;-69
2023/08/12 03:18:23;;;;;;;2.00;1.90;;;21.50;75.10;;;;;;5100018;28;20213;-69
2023/08/12 03:20:49;;;;;;;1.88;1.77;;;21.50;75.20;;;;;;5068908;28;20674;-69
2023/08/12 03:23:15;;;;;;;1.70;1.60;;;21.60;75.30;;;;;;5088521;28;20180;-69
2023/08/12 03:25:42;;;;;;;1.92;1.83;;;21.50;75.20;;;;;;5080680;28;20214;-69
2023/08/12 03:28:08;;;;;;;2.08;1.98;;;21.50;75.30;;;;;;5068483;28;20204;-70
2023/08/12 03:30:34;;;;;;;1.80;1.70;;;21.50;75.20;;;;;;5068389;28;20184;-69
2023/08/12 03:33:01;;;;;;;1.90;1.80;;;21.50;75.20;;;;;;5078848;28;20285;-69
2023/08/12 03:35:30;;;;;;;1.90;1.80;;;21.50;75.10;;;;;;5072336;28;20317;-69
2023/08/12 03:37:56;;;;;;;1.75;1.65;;;21.50;75.20;;;;;;5104000;28;20204;-69
2023/08/12 03:40:22;;;;;;;1.80;1.70;;;21.50;75.20;;;;;;5089905;28;20176;-70
2023/08/12 03:42:48;;;;;;;1.73;1.63;;;21.50;75.20;;;;;;5087851;28;20269;-70
2023/08/12 03:45:16;;;;;;;1.73;1.63;;;21.50;75.10;;;;;;5080173;28;20176;-71
2023/08/12 03:47:41;;;;;;;1.75;1.65;;;21.50;75.20;;;;;;5063852;28;20188;-70
2023/08/12 03:50:08;;;;;;;1.90;1.80;;;21.50;75.20;;;;;;5084481;28;20193;-70
2023/08/12 03:52:34;;;;;;;2.10;2.00;;;21.50;75.20;;;;;;5076432;28;20185;-71
2023/08/12 03:55:00;;;;;;;1.80;1.70;;;21.50;75.10;;;;;;5078084;28;20180;-70
2023/08/12 03:57:26;;;;;;;1.88;1.77;;;21.50;75.20;;;;;;5067011;28;20188;-70
2023/08/12 03:59:52;;;;;;;1.73;1.63;;;21.50;75.20;;;;;;5075990;28;20205;-70
2023/08/12 04:02:18;;;;;;;1.80;1.70;;;21.50;75.20;;;;;;5083718;28;20193;-69
2023/08/12 04:04:44;;;;;;;1.80;1.70;;;21.50;75.20;;;;;;5075944;28;20192;-70
2023/08/12 04:07:10;;;;;;;1.80;1.70;;;21.50;75.20;;;;;;5067654;28;20214;-70
2023/08/12 04:09:36;;;;;;;2.05;1.95;;;21.50;75.20;;;;;;5092580;28;20212;-70
2023/08/12 04:12:02;;;;;;;1.85;1.75;;;21.50;75.30;;;;;;5077263;28;20193;-70
2023/08/12 04:14:28;;;;;;;1.98;1.88;;;21.60;75.40;;;;;;5071093;28;20216;-70
2023/08/12 04:16:53;;;;;;;2.00;1.90;;;21.50;75.40;;;;;;5105270;28;20191;-69
2023/08/12 04:19:19;;;;;;;1.92;1.83;;;21.50;75.30;;;;;;5079487;28;20204;-69
2023/08/12 04:21:46;;;;;;;1.80;1.70;;;21.50;75.30;;;;;;5075917;28;20212;-70
2023/08/12 04:24:13;;;;;;;1.77;1.67;;;21.50;75.40;;;;;;5070989;28;20191;-68
2023/08/12 04:26:39;;;;;;;1.98;1.88;;;21.50;75.40;;;;;;5097518;28;20196;-70
2023/08/12 04:29:05;;;;;;;1.70;1.60;;;21.50;75.40;;;;;;5091858;28;20212;-70
2023/08/12 04:31:31;;;;;;;2.20;2.10;;;21.50;75.40;;;;;;5069226;28;20212;-70
2023/08/12 04:33:57;;;;;;;1.98;1.88;;;21.50;75.40;;;;;;5066889;28;20227;-70
2023/08/12 04:36:24;;;;;;;1.90;1.80;;;21.50;75.40;;;;;;5075660;28;20185;-70
2023/08/12 04:38:51;;;;;;;1.80;1.70;;;21.50;75.30;;;;;;5100111;28;20208;-72
2023/08/12 04:41:18;;;;;;;1.75;1.65;;;21.50;75.40;;;;;;5100962;28;20177;-69
2023/08/12 04:43:44;;;;;;;1.80;1.70;;;21.50;75.40;;;;;;5067564;28;20189;-70
2023/08/12 04:46:10;;;;;;;1.88;1.77;;;21.50;75.30;;;;;;5099753;28;20213;-70
2023/08/12 04:48:36;;;;;;;1.92;1.83;;;21.50;75.40;;;;;;5074205;28;20219;-71
2023/08/12 04:51:03;;;;;;;2.03;1.92;;;21.50;75.40;;;;;;5092925;28;20220;-69
2023/08/12 04:53:28;;;;;;;1.65;1.55;;;21.50;75.40;;;;;;5087066;28;20302;-69
2023/08/12 04:55:56;;;;;;;2.13;2.03;;;21.50;75.40;;;;;;5086707;28;20180;-69
2023/08/12 04:58:22;;;;;;;1.90;1.80;;;21.50;75.30;;;;;;5075013;28;20205;-69
2023/08/12 05:00:52;;;;;;;1.85;1.75;;;21.50;75.40;;;;;;5082326;28;20260;-69
2023/08/12 05:03:19;;;;;;;1.73;1.63;;;21.50;75.40;;;;;;5074565;28;20181;-69
2023/08/12 05:05:52;;;;;;;1.70;1.60;;;21.50;75.40;;;;;;5081826;28;20183;-70
2023/08/12 05:08:19;;;;;;;1.80;1.70;;;21.50;75.40;;;;;;5074902;28;20274;-69
2023/08/12 05:10:49;;;;;;;1.77;1.67;;;21.50;75.60;;;;;;5083309;28;20185;-70
2023/08/12 05:13:15;;;;;;;2.10;1.90;;;21.50;75.50;;;;;;5094323;28;20243;-69
2023/08/12 05:15:44;;;;;;;1.70;1.60;;;21.50;75.50;;;;;;5097206;28;20177;-71
2023/08/12 05:18:10;;;;;;;2.03;1.90;;;21.50;75.60;;;;;;5082866;28;20687;-69
2023/08/12 05:20:36;;;;;;;1.73;1.63;;;21.50;75.50;;;;;;5080586;28;20176;-69
2023/08/12 05:23:02;;;;;;;1.88;1.77;;;21.50;75.50;;;;;;5067507;28;20190;-70
2023/08/12 05:25:28;;;;;;;1.80;1.70;;;21.50;75.50;;;;;;5079582;28;20190;-70
2023/08/12 05:27:53;;;;;;;2.03;1.65;;;21.50;75.50;;;;;;5061804;28;20219;-69
2023/08/12 05:30:19;;;;;;;1.77;1.67;;;21.50;75.50;;;;;;5084917;28;20192;-69
2023/08/12 05:32:45;;;;;;;1.80;1.70;;;21.50;75.50;;;;;;5077945;28;20215;-69
2023/08/12 05:35:11;;;;;;;1.90;1.80;;;21.50;75.50;;;;;;5094516;28;20268;-70
2023/08/12 05:37:36;;;;;;;1.90;1.80;;;21.50;75.50;;;;;;5065591;28;20212;-69
2023/08/12 05:40:07;;;;;;;1.45;1.35;;;21.50;75.50;;;;;;5082552;28;20206;-69
2023/08/12 05:42:34;;;;;;;2.00;1.90;;;21.50;75.50;;;;;;5074526;28;20242;-69
2023/08/12 05:45:00;;;;;;;1.90;1.80;;;21.50;75.50;;;;;;5082837;28;20181;-69
2023/08/12 05:47:25;;;;;;;1.80;1.70;;;21.50;75.60;;;;;;5077686;28;20194;-70
2023/08/12 05:49:51;;;;;;;1.63;1.52;;;21.50;75.60;;;;;;5070148;28;20227;-69
2023/08/12 05:52:17;;;;;;;1.60;1.50;;;21.50;75.60;;;;;;5073603;28;20201;-70
2023/08/12 05:54:42;;;;;;;1.98;1.88;;;21.50;75.60;;;;;;5074104;28;20221;-69
2023/08/12 05:57:08;;;;;;;1.70;1.60;;;21.50;75.70;;;;;;5091830;28;20189;-69
2023/08/12 05:59:34;;;;;;;1.60;1.50;;;21.50;75.70;;;;;;5065724;28;20205;-69
2023/08/12 06:01:59;;;;;;;2.00;1.90;;;21.50;75.70;;;;;;5081901;28;20264;-69
2023/08/12 06:04:25;;;;;;;1.80;1.70;;;21.50;75.80;;;;;;5085706;28;20562;-71
2023/08/12 06:06:51;;;;;;;1.65;1.55;;;21.50;75.80;;;;;;5069134;28;20191;-69
2023/08/12 06:09:17;;;;;;;1.70;1.60;;;21.50;75.80;;;;;;5077343;28;20224;-69
2023/08/12 06:11:42;;;;;;;2.30;1.77;;;21.50;76.00;;;;;;5085775;28;20195;-69
2023/08/12 06:14:08;;;;;;;2.03;1.92;;;21.50;76.00;;;;;;5076020;28;20204;-69
2023/08/12 06:16:34;;;;;;;1.88;1.77;;;21.50;75.80;;;;;;5074013;28;20184;-70
2023/08/12 06:19:00;;;;;;;1.70;1.60;;;21.50;76.00;;;;;;5073454;28;20204;-72
2023/08/12 06:21:25;;;;;;;1.73;1.63;;;21.50;75.90;;;;;;5073646;28;20185;-69
2023/08/12 06:23:51;;;;;;;1.80;1.70;;;21.50;76.00;;;;;;5080621;28;20183;-70
2023/08/12 06:26:17;;;;;;;1.83;1.73;;;21.50;75.80;;;;;;5075482;28;20243;-70
2023/08/12 06:28:43;;;;;;;1.77;1.67;;;21.50;76.00;;;;;;5081795;28;20208;-69
2023/08/12 06:31:09;;;;;;;2.10;2.00;;;21.50;75.80;;;;;;5073716;28;20193;-70
2023/08/12 06:33:34;;;;;;;1.70;1.60;;;21.50;76.00;;;;;;5077960;28;20211;-70
2023/08/12 06:36:00;;;;;;;1.77;1.67;;;21.50;76.00;;;;;;5068494;28;20240;-69
2023/08/12 06:38:26;;;;;;;1.60;1.50;;;21.50;75.80;;;;;;5090275;28;20254;-69
2023/08/12 06:40:51;;;;;;;1.65;1.55;;;21.50;75.90;;;;;;5091623;28;20181;-70
2023/08/12 06:43:17;;;;;;;1.70;1.60;;;21.50;76.00;;;;;;5104410;28;20322;-69
2023/08/12 06:45:43;;;;;;;1.70;1.60;;;21.50;75.90;;;;;;5072657;28;20244;-69
2023/08/12 06:48:09;;;;;;;1.60;1.50;;;21.50;75.90;;;;;;5064052;28;20204;-70
2023/08/12 06:50:34;;;;;;;1.95;1.85;;;21.50;75.80;;;;;;5107445;28;20273;-69
2023/08/12 06:53:00;;;;;;;1.80;1.70;;;21.50;75.90;;;;;;5081697;28;20211;-69
2023/08/12 06:55:26;;;;;;;1.90;1.80;;;21.50;75.90;;;;;;5060671;28;20715;-69
2023/08/12 06:57:51;;;;;;;1.90;1.80;;;21.50;75.90;;;;;;5083724;28;20172;-72
2023/08/12 07:00:17;;;;;;;2.17;2.08;;;21.50;76.20;;;;;;5103986;28;20189;-70
2023/08/12 07:02:43;;;;;;;2.00;1.90;;;21.50;76.10;;;;;;5072542;28;20184;-69
2023/08/12 07:05:09;;;;;;;1.77;1.67;;;21.50;76.10;;;;;;5071768;28;20271;-69
2023/08/12 07:07:35;;;;;;;1.80;1.70;;;21.50;76.20;;;;;;5077089;28;20254;-70
2023/08/12 07:10:01;;;;;;;2.05;1.90;;;21.50;76.20;;;;;;5097473;28;20173;-69
2023/08/12 07:12:27;;;;;;;1.90;1.80;;;21.50;76.20;;;;;;5069267;28;20405;-70
2023/08/12 07:14:52;;;;;;;1.88;1.77;;;21.50;76.20;;;;;;5074228;28;20217;-70
2023/08/12 07:17:18;;;;;;;2.28;2.08;;;21.50;76.30;;;;;;5077061;28;20177;-70
2023/08/12 07:19:44;;;;;;;1.70;1.60;;;21.50;76.40;;;;;;5085176;28;20196;-72
2023/08/12 07:22:09;;;;;;;1.90;1.80;;;21.50;76.20;;;;;;5077344;28;20189;-70
2023/08/12 07:24:36;;;;;;;1.92;1.83;;;21.50;76.30;;;;;;5105560;28;20233;-69
2023/08/12 07:27:02;;;;;;;1.90;1.80;;;21.50;76.90;;;;;;5085885;28;20192;-69
2023/08/12 07:29:27;;;;;;;2.03;1.92;;;21.50;76.90;;;;;;5076780;28;20213;-69
2023/08/12 07:31:53;;;;;;;1.95;1.80;;;21.50;76.70;;;;;;5071219;28;20268;-70
2023/08/12 07:34:19;;;;;;;1.98;1.88;;;21.50;76.80;;;;;;5084805;28;20193;-70
2023/08/12 07:36:46;;;;;;;2.45;2.28;;;21.50;76.50;;;;;;5076556;28;20215;-70
2023/08/12 07:39:11;;;;;;;1.85;1.75;;;21.50;76.60;;;;;;5094212;28;20204;-70
2023/08/12 07:41:37;;;;;;;1.75;1.65;;;21.50;76.70;;;;;;5085219;28;20191;-70
2023/08/12 07:44:04;;;;;;;1.98;1.88;;;21.50;76.90;;;;;;5084874;28;20569;-69
2023/08/12 07:46:30;;;;;;;1.77;1.67;;;21.50;76.80;;;;;;5084548;28;20188;-69
2023/08/12 07:48:57;;;;;;;1.90;1.80;;;21.50;76.70;;;;;;5082448;28;20204;-69
2023/08/12 07:51:22;;;;;;;1.70;1.60;;;21.50;76.40;;;;;;5079805;28;20220;-69
2023/08/12 07:53:48;;;;;;;1.63;1.52;;;21.50;76.40;;;;;;5105151;28;20235;-69
2023/08/12 07:56:14;;;;;;;1.90;1.80;;;21.50;76.30;;;;;;5095904;28;20181;-69
2023/08/12 07:58:40;;;;;;;2.00;1.90;;;21.50;76.30;;;;;;5068552;28;20201;-70
2023/08/12 08:01:07;;;;;;;1.90;1.80;;;21.50;76.50;;;;;;5076174;28;20612;-69
2023/08/12 08:03:33;;;;;;;1.95;1.85;;;21.50;76.40;;;;;;5079246;28;20204;-69
2023/08/12 08:05:59;;;;;;;1.80;1.70;;;21.60;76.30;;;;;;5064429;28;20200;-69
2023/08/12 08:08:25;;;;;;;2.10;2.00;;;21.60;76.20;;;;;;5084358;28;20269;-69
2023/08/12 08:10:50;;;;;;;2.00;1.90;;;21.60;76.10;;;;;;5098141;28;20188;-69
2023/08/12 08:13:16;;;;;;;1.70;1.60;;;21.70;76.10;;;;;;5070727;28;20209;-70
2023/08/12 08:15:42;;;;;;;1.55;1.45;;;21.70;76.00;;;;;;5083672;28;20540;-69
2023/08/12 08:18:07;;;;;;;1.70;1.60;;;21.70;76.00;;;;;;5098969;28;20270;-69
2023/08/12 08:20:33;;;;;;;1.60;1.50;;;21.70;75.90;;;;;;5061412;28;20196;-69
2023/08/12 08:22:59;;;;;;;1.90;1.80;;;21.70;76.00;;;;;;5081176;28;20192;-69
2023/08/12 08:25:25;;;;;;;2.10;1.90;;;21.70;75.90;;;;;;5075359;28;20192;-69
2023/08/12 08:27:51;;;;;;;1.83;1.73;;;21.70;76.00;;;;;;5080362;28;20244;-70
2023/08/12 08:30:17;;;;;;;1.83;1.70;;;21.70;75.80;;;;;;5095683;28;20217;-69
2023/08/12 08:32:42;;;;;;;1.90;1.80;;;21.80;76.10;;;;;;5084150;28;20675;-69
2023/08/12 08:35:08;;;;;;;1.92;1.83;;;21.80;76.00;;;;;;5083118;28;20172;-69
2023/08/12 08:37:34;;;;;;;1.73;1.63;;;21.80;75.90;;;;;;5076184;28;20189;-69
2023/08/12 08:39:59;;;;;;;1.88;1.77;;;21.70;75.80;;;;;;5081745;28;20634;-69
2023/08/12 08:42:25;;;;;;;1.50;1.40;;;21.80;76.00;;;;;;5077480;28;20180;-69
2023/08/12 08:44:53;;;;;;;1.92;1.83;;;21.80;76.00;;;;;;5101793;28;20208;-70
2023/08/12 08:47:27;;;;;;;2.03;1.90;;;21.80;76.00;;;;;;5094702;28;20187;-69
2023/08/12 08:49:57;;;;;;;1.75;1.65;;;21.80;75.80;;;;;;5083569;28;20287;-69
2023/08/12 08:52:26;;;;;;;1.90;1.80;;;21.80;75.90;;;;;;5084112;28;20700;-69
2023/08/12 08:54:53;;;;;;;1.70;1.60;;;21.80;75.90;;;;;;5086786;28;20291;-69
2023/08/12 08:57:19;;;;;;;1.95;1.85;;;21.80;75.90;;;;;;5089795;28;20648;-70
2023/08/12 08:59:45;;;;;;;1.80;1.70;;;21.90;76.00;;;;;;5083140;28;20232;-69
2023/08/12 09:02:17;;;;;;;1.88;1.77;;;21.90;76.00;;;;;;5083245;28;20268;-69
2023/08/12 09:04:46;;;;;;;1.90;1.80;;;21.90;76.00;;;;;;5092882;28;20181;-69
2023/08/12 09:07:16;;;;;;;1.70;1.60;;;21.90;75.90;;;;;;5071474;28;20190;-69
2023/08/12 09:09:48;;;;;;;1.63;1.52;;;21.90;75.90;;;;;;5086098;28;20215;-69
2023/08/12 09:12:16;;;;;;;1.60;1.50;;;21.90;75.80;;;;;;5095570;28;20275;-70
2023/08/12 09:14:43;;;;;;;1.95;1.75;;;21.90;75.90;;;;;;5103240;28;20214;-69
2023/08/12 09:17:10;;;;;;;1.65;1.55;;;22.00;76.00;;;;;;5103640;28;20211;-69
2023/08/12 09:19:36;;;;;;;1.77;1.67;;;21.90;75.90;;;;;;5092838;28;20205;-69
2023/08/12 09:22:05;;;;;;;1.60;1.50;;;21.90;76.00;;;;;;5082720;28;20199;-70
2023/08/12 09:24:31;;;;;;;1.90;1.80;;;22.00;76.30;;;;;;5075349;28;20193;-69
2023/08/12 09:26:56;;;;;;;1.80;1.70;;;22.00;76.00;;;;;;5081157;28;20195;-69
2023/08/12 09:29:28;;;;;;;1.50;1.40;;;21.90;76.00;;;;;;5101106;28;20201;-69
2023/08/12 09:31:54;;;;;;;1.60;1.50;;;21.90;76.10;;;;;;5086509;28;20210;-69
2023/08/12 09:34:20;;;;;;;1.88;1.77;;;21.90;76.30;;;;;;5094537;28;20263;-69
2023/08/12 09:36:47;;;;;;;1.98;1.88;;;21.90;76.20;;;;;;5082678;28;20272;-69
2023/08/12 09:39:13;;;;;;;1.70;1.60;;;21.90;76.10;;;;;;5082361;28;20200;-71
2023/08/12 09:41:41;;;;;;;1.77;1.67;;;22.00;76.20;;;;;;5068506;28;20195;-69
2023/08/12 09:44:08;;;;;;;1.60;1.50;;;21.90;76.70;;;;;;5096681;28;20576;-69
2023/08/12 09:46:34;;;;;;;1.60;1.50;;;22.00;75.90;;;;;;5084062;28;20640;-69
2023/08/12 09:48:59;;;;;;;1.70;1.60;;;22.00;76.00;;;;;;5085823;28;20233;-69
2023/08/12 09:51:25;;;;;;;1.70;1.60;;;22.00;76.00;;;;;;5076876;28;20208;-71
2023/08/12 09:53:52;;;;;;;1.73;1.63;;;22.00;75.90;;;;;;5078200;28;20215;-69
2023/08/12 09:56:23;;;;;;;1.83;1.73;;;22.00;75.90;;;;;;5069336;28;20199;-68
2023/08/12 09:58:52;;;;;;;1.88;1.77;;;22.00;76.00;;;;;;5082502;28;20684;-69
2023/08/12 10:01:22;;;;;;;1.80;1.70;;;22.00;76.00;;;;;;5081238;28;20188;-69
2023/08/12 10:03:51;;;;;;;2.00;1.90;;;22.00;76.00;;;;;;5086111;28;20191;-69
2023/08/12 10:06:18;;;;;;;2.67;1.80;;;22.00;76.00;;;;;;5085692;28;20632;-70
2023/08/12 10:08:49;;;;;;;1.98;1.88;;;22.00;76.00;;;;;;5092073;28;20690;-71
2023/08/12 10:11:15;;;;;;;1.60;1.50;;;22.00;76.00;;;;;;5073990;28;20690;-69
2023/08/12 10:13:41;;;;;;;1.83;1.73;;;22.00;75.90;;;;;;5099308;28;20225;-69
2023/08/12 10:16:09;;;;;;;1.88;1.77;;;22.10;75.90;;;;;;5098872;28;20204;-69
2023/08/12 10:18:38;;;;;;;2.00;1.90;;;22.10;75.80;;;;;;5098756;28;20207;-70
2023/08/12 10:21:09;;;;;;;1.80;1.70;;;22.10;75.80;;;;;;5096201;28;20176;-69
2023/08/12 10:23:35;;;;;;;1.38;1.27;;;22.10;75.80;;;;;;5077142;28;20189;-68
2023/08/12 10:26:04;;;;;;;1.80;1.70;;;22.10;75.90;;;;;;5085869;28;20183;-70
2023/08/12 10:28:36;;;;;;;1.63;1.52;;;22.10;75.80;;;;;;5067683;28;20249;-69
2023/08/12 10:31:05;;;;;;;1.95;1.85;;;22.10;75.90;;;;;;5053643;28;20199;-69
2023/08/12 10:33:39;;;;;;;1.60;1.50;;;22.10;76.00;;;;;;5077458;28;20218;-69
2023/08/12 10:36:05;;;;;;;1.63;1.52;;;22.10;76.00;;;;;;5080425;28;20201;-71
2023/08/12 10:38:33;;;;;;;1.63;1.52;;;22.10;75.90;;;;;;5074201;28;20250;-69
2023/08/12 10:41:20;;;;;;;1.77;1.67;;;22.10;75.90;;;;;;5073581;28;20197;-69
2023/08/12 10:43:49;;;;;;;1.55;1.45;;;22.10;76.10;;;;;;5081719;28;20192;-69
2023/08/12 10:46:35;;;;;;;1.52;1.42;;;22.10;76.00;;;;;;5106753;28;20188;-69
2023/08/12 10:49:08;;;;;;;2.00;1.75;;;22.10;76.00;;;;;;5081386;28;20215;-69
2023/08/12 10:51:53;;;;;;;1.88;1.77;;;22.10;75.80;;;;;;5093939;28;20220;-69
2023/08/12 10:54:31;;;;;;;1.75;1.65;;;22.20;76.10;;;;;;5085475;28;20209;-69
2023/08/12 10:57:02;;;;;;;2.00;1.90;;;22.20;76.00;;;;;;5069896;28;20184;-69
2023/08/12 10:59:54;;;;;;;1.75;1.65;;;22.20;75.90;;;;;;5084994;28;20313;-72
2023/08/12 11:02:23;;;;;;;1.70;1.60;;;22.20;76.00;;;;;;5073140;28;20189;-69
2023/08/12 11:05:12;;;;;;;1.90;1.80;;;22.20;76.00;;;;;;5097972;28;20272;-69
2023/08/12 11:07:45;;;;;;;1.63;1.52;;;22.10;76.00;;;;;;5082019;28;20193;-69
2023/08/12 11:10:13;;;;;;;2.00;1.90;;;22.20;75.90;;;;;;5062493;28;20189;-69
2023/08/12 11:12:47;;;;;;;1.50;1.40;;;22.20;75.90;;;;;;5082990;28;20184;-69
2023/08/12 11:15:12;;;;;;;1.77;1.67;;;22.20;75.90;;;;;;5101937;28;20237;-69
2023/08/12 11:17:42;;;;;;;1.70;1.60;;;22.20;75.80;;;;;;5089714;28;20221;-68
2023/08/12 11:20:11;;;;;;;1.70;1.60;;;22.20;76.30;;;;;;5081654;28;20185;-69
2023/08/12 11:22:40;;;;;;;2.10;2.00;;;22.20;75.90;;;;;;5081799;28;20283;-69
2023/08/12 11:25:12;;;;;;;1.90;1.73;;;22.20;75.90;;;;;;5090098;28;20193;-69
2023/08/12 11:27:43;;;;;;;1.85;1.75;;;22.20;75.90;;;;;;5072872;28;20865;-69
2023/08/12 11:30:13;;;;;;;1.73;1.63;;;22.20;76.00;;;;;;5084917;28;20181;-67
2023/08/12 11:32:40;;;;;;;1.60;1.50;;;22.20;75.90;;;;;;5086072;28;20181;-69
2023/08/12 11:35:08;;;;;;;1.77;1.67;;;22.20;75.90;;;;;;5109082;28;20199;-69
2023/08/12 11:37:39;;;;;;;1.60;1.50;;;22.20;76.00;;;;;;5102951;28;20191;-69
2023/08/12 11:40:10;;;;;;;1.83;1.73;;;22.20;75.90;;;;;;5076581;28;20195;-69
2023/08/12 11:42:38;;;;;;;1.60;1.50;;;22.20;76.00;;;;;;5102453;28;20655;-69
2023/08/12 11:45:06;;;;;;;1.90;1.80;;;22.20;75.90;;;;;;5088309;28;20190;-70
2023/08/12 11:47:34;;;;;;;1.60;1.50;;;22.20;76.00;;;;;;5096623;28;20189;-69
2023/08/12 11:50:03;;;;;;;1.67;1.58;;;22.20;75.90;;;;;;5085229;28;20227;-69
2023/08/12 11:52:30;;;;;;;1.70;1.60;;;22.20;76.00;;;;;;5084943;28;20258;-69
2023/08/12 11:54:57;;;;;;;1.70;1.60;;;22.20;75.90;;;;;;5093303;28;20209;-69
2023/08/12 11:57:23;;;;;;;1.73;1.63;;;22.20;75.90;;;;;;5102541;28;20271;-69
2023/08/12 11:59:50;;;;;;;1.73;1.63;;;22.20;75.80;;;;;;5084176;28;20197;-69
2023/08/12 12:02:16;;;;;;;1.90;1.80;;;22.20;75.80;;;;;;5075288;28;20192;-69
2023/08/12 12:04:43;;;;;;;1.80;1.70;;;22.20;75.90;;;;;;5084612;28;20199;-69
2023/08/12 12:07:25;;;;;;;1.60;1.50;;;22.20;76.00;;;;;;5076105;28;20203;-69
2023/08/12 12:09:54;;;;;;;1.63;1.52;;;22.20;76.10;;;;;;5084471;28;20701;-69
2023/08/12 12:12:24;;;;;;;1.70;1.60;;;22.20;76.00;;;;;;5084381;28;20193;-69
2023/08/12 12:14:55;;;;;;;1.67;1.58;;;22.30;76.20;;;;;;5085556;28;20215;-69
2023/08/12 12:17:23;;;;;;;1.80;1.70;;;22.20;76.30;;;;;;5084324;28;20566;-69
2023/08/12 12:20:00;;;;;;;1.90;1.67;;;22.30;76.50;;;;;;5103843;28;20300;-69
2023/08/12 12:22:29;;;;;;;1.52;1.42;;;22.20;76.10;;;;;;5076131;28;20248;-69
2023/08/12 12:24:59;;;;;;;1.60;1.50;;;22.20;76.30;;;;;;5078280;28;20193;-69
2023/08/12 12:27:26;;;;;;;1.88;1.77;;;22.20;76.20;;;;;;5088904;28;20275;-69
2023/08/12 12:29:53;;;;;;;1.73;1.63;;;22.30;76.30;;;;;;5101621;28;20219;-69
2023/08/12 12:32:20;;;;;;;1.70;1.60;;;22.30;76.20;;;;;;5082216;28;20193;-69
2023/08/12 12:34:46;;;;;;;1.88;1.77;;;22.30;76.30;;;;;;5083797;28;20208;-69
2023/08/12 12:37:13;;;;;;;2.80;1.35;;;22.20;76.00;;;;;;5083836;28;20189;-70
2023/08/12 12:39:40;;;;;;;1.80;1.70;;;22.30;76.10;;;;;;5083506;28;20209;-69
2023/08/12 12:42:06;;;;;;;1.80;1.70;;;22.30;76.20;;;;;;5060918;28;20230;-69
2023/08/12 12:44:32;;;;;;;1.85;1.75;;;22.30;76.20;;;;;;5082787;28;20187;-69
2023/08/12 12:46:57;;;;;;;1.80;1.70;;;22.30;76.10;;;;;;5069740;28;20192;-68
2023/08/12 12:49:23;;;;;;;1.70;1.60;;;22.30;76.30;;;;;;5097680;28;20201;-69